sensor_id;sensor_type;location;lat;lon;timestamp;temperature;humidity
20911;DHT22;10615;42.702;23.314;2024-01-11T00:00:47;-1.80;84.80
20911;DHT22;10615;42.702;23.314;2024-01-11T00:01:48;-1.80;84.80
20911;DHT22;10615;42.702;23.314;2024-01-11T00:02:49;-1.80;84.80
20911;DHT22;10615;42.702;23.314;2024-01-11T00:03:50;-1.80;84.90
20911;DHT22;10615;42.702;23.314;2024-01-11T00:04:50;-1.80;84.90
20911;DHT22;10615;42.702;23.314;2024-01-11T00:05:51;-1.80;84.90
20911;DHT22;10615;42.702;23.314;2024-01-11T00:06:52;-1.80;84.90
20911;DHT22;10615;42.702;23.314;2024-01-11T00:07:53;-1.80;85.00
20911;DHT22;10615;42.702;23.314;2024-01-11T00:08:53;-1.80;85.00
20911;DHT22;10615;42.702;23.314;2024-01-11T00:09:54;-1.80;84.90
20911;DHT22;10615;42.702;23.314;2024-01-11T00:10:55;-1.80;84.90
20911;DHT22;10615;42.702;23.314;2024-01-11T00:11:55;-1.80;84.80
20911;DHT22;10615;42.702;23.314;2024-01-11T00:12:56;-1.80;84.80
20911;DHT22;10615;42.702;23.314;2024-01-11T00:13:57;-1.80;84.80
20911;DHT22;10615;42.702;23.314;2024-01-11T00:14:58;-1.80;84.90
20911;DHT22;10615;42.702;23.314;2024-01-11T00:15:59;-1.80;84.90
20911;DHT22;10615;42.702;23.314;2024-01-11T00:17:00;-1.80;84.90
20911;DHT22;10615;42.702;23.314;2024-01-11T00:19:20;-1.80;85.00
20911;DHT22;10615;42.702;23.314;2024-01-11T00:20:21;-1.80;85.00
20911;DHT22;10615;42.702;23.314;2024-01-11T00:21:22;-1.80;85.00
20911;DHT22;10615;42.702;23.314;2024-01-11T00:22:22;-1.90;85.00
20911;DHT22;10615;42.702;23.314;2024-01-11T00:23:23;-1.90;85.10
20911;DHT22;10615;42.702;23.314;2024-01-11T00:24:24;-1.90;85.20
20911;DHT22;10615;42.702;23.314;2024-01-11T00:25:25;-1.90;85.20
20911;DHT22;10615;42.702;23.314;2024-01-11T00:26:25;-1.90;85.30
20911;DHT22;10615;42.702;23.314;2024-01-11T00:27:26;-2.00;85.30
20911;DHT22;10615;42.702;23.314;2024-01-11T00:28:27;-2.00;85.40
20911;DHT22;10615;42.702;23.314;2024-01-11T00:29:27;-2.10;85.30
20911;DHT22;10615;42.702;23.314;2024-01-11T00:30:29;-2.10;85.40
20911;DHT22;10615;42.702;23.314;2024-01-11T00:31:29;-2.10;85.60
20911;DHT22;10615;42.702;23.314;2024-01-11T00:32:30;-2.10;85.70
20911;DHT22;10615;42.702;23.314;2024-01-11T00:33:31;-2.10;85.80
20911;DHT22;10615;42.702;23.314;2024-01-11T00:34:32;-2.10;85.80
20911;DHT22;10615;42.702;23.314;2024-01-11T00:35:33;-2.10;85.80
20911;DHT22;10615;42.702;23.314;2024-01-11T00:36:34;-2.10;85.80
20911;DHT22;10615;42.702;23.314;2024-01-11T00:37:35;-2.10;85.80
20911;DHT22;10615;42.702;23.314;2024-01-11T00:38:36;-2.10;85.70
20911;DHT22;10615;42.702;23.314;2024-01-11T00:39:36;-2.10;85.80
20911;DHT22;10615;42.702;23.314;2024-01-11T00:40:37;-2.10;85.70
20911;DHT22;10615;42.702;23.314;2024-01-11T00:41:38;-2.10;85.60
20911;DHT22;10615;42.702;23.314;2024-01-11T00:42:38;-2.10;85.50
20911;DHT22;10615;42.702;23.314;2024-01-11T00:43:39;-2.10;85.30
20911;DHT22;10615;42.702;23.314;2024-01-11T00:44:40;-2.20;85.20
20911;DHT22;10615;42.702;23.314;2024-01-11T00:45:41;-2.20;85.20
20911;DHT22;10615;42.702;23.314;2024-01-11T00:46:41;-2.20;85.30
20911;DHT22;10615;42.702;23.314;2024-01-11T00:47:42;-2.20;85.30
20911;DHT22;10615;42.702;23.314;2024-01-11T00:48:43;-2.30;85.40
20911;DHT22;10615;42.702;23.314;2024-01-11T00:49:44;-2.40;85.50
20911;DHT22;10615;42.702;23.314;2024-01-11T00:50:44;-2.30;85.70
20911;DHT22;10615;42.702;23.314;2024-01-11T00:51:45;-2.30;85.70
20911;DHT22;10615;42.702;23.314;2024-01-11T00:52:46;-2.30;85.80
20911;DHT22;10615;42.702;23.314;2024-01-11T00:53:47;-2.30;85.80
20911;DHT22;10615;42.702;23.314;2024-01-11T00:54:47;-2.30;85.80
20911;DHT22;10615;42.702;23.314;2024-01-11T00:55:48;-2.30;85.80
20911;DHT22;10615;42.702;23.314;2024-01-11T00:56:49;-2.30;85.70
20911;DHT22;10615;42.702;23.314;2024-01-11T00:57:50;-2.30;85.70
20911;DHT22;10615;42.702;23.314;2024-01-11T00:58:51;-2.30;85.60
20911;DHT22;10615;42.702;23.314;2024-01-11T00:59:51;-2.30;85.50
20911;DHT22;10615;42.702;23.314;2024-01-11T01:00:53;-2.40;85.30
20911;DHT22;10615;42.702;23.314;2024-01-11T01:01:54;-2.30;85.40
20911;DHT22;10615;42.702;23.314;2024-01-11T01:02:55;-2.40;85.30
20911;DHT22;10615;42.702;23.314;2024-01-11T01:03:56;-2.40;85.40
20911;DHT22;10615;42.702;23.314;2024-01-11T01:04:57;-2.40;85.30
20911;DHT22;10615;42.702;23.314;2024-01-11T01:05:57;-2.40;85.30
20911;DHT22;10615;42.702;23.314;2024-01-11T01:06:58;-2.30;85.30
20911;DHT22;10615;42.702;23.314;2024-01-11T01:07:59;-2.40;85.10
20911;DHT22;10615;42.702;23.314;2024-01-11T01:09:00;-2.40;84.90
20911;DHT22;10615;42.702;23.314;2024-01-11T01:10:00;-2.40;85.00
20911;DHT22;10615;42.702;23.314;2024-01-11T01:11:02;-2.40;85.00
20911;DHT22;10615;42.702;23.314;2024-01-11T01:12:03;-2.40;85.00
20911;DHT22;10615;42.702;23.314;2024-01-11T01:13:04;-2.40;85.10
20911;DHT22;10615;42.702;23.314;2024-01-11T01:14:05;-2.40;85.10
20911;DHT22;10615;42.702;23.314;2024-01-11T01:15:06;-2.40;85.10
20911;DHT22;10615;42.702;23.314;2024-01-11T01:16:07;-2.40;85.00
20911;DHT22;10615;42.702;23.314;2024-01-11T01:17:08;-2.50;84.90
20911;DHT22;10615;42.702;23.314;2024-01-11T01:18:09;-2.50;84.90
20911;DHT22;10615;42.702;23.314;2024-01-11T01:19:09;-2.50;85.10
20911;DHT22;10615;42.702;23.314;2024-01-11T01:20:11;-2.50;85.20
20911;DHT22;10615;42.702;23.314;2024-01-11T01:21:12;-2.50;85.20
20911;DHT22;10615;42.702;23.314;2024-01-11T01:22:12;-2.50;85.30
20911;DHT22;10615;42.702;23.314;2024-01-11T01:23:13;-2.50;85.40
20911;DHT22;10615;42.702;23.314;2024-01-11T01:24:14;-2.50;85.40
20911;DHT22;10615;42.702;23.314;2024-01-11T01:25:15;-2.50;85.40
20911;DHT22;10615;42.702;23.314;2024-01-11T01:26:16;-2.50;85.40
20911;DHT22;10615;42.702;23.314;2024-01-11T01:27:17;-2.60;85.30
20911;DHT22;10615;42.702;23.314;2024-01-11T01:28:17;-2.60;85.30
20911;DHT22;10615;42.702;23.314;2024-01-11T01:29:18;-2.60;85.40
20911;DHT22;10615;42.702;23.314;2024-01-11T01:30:20;-2.60;85.60
20911;DHT22;10615;42.702;23.314;2024-01-11T01:31:21;-2.70;85.60
20911;DHT22;10615;42.702;23.314;2024-01-11T01:32:22;-2.60;85.80
20911;DHT22;10615;42.702;23.314;2024-01-11T01:33:23;-2.70;85.70
20911;DHT22;10615;42.702;23.314;2024-01-11T01:34:23;-2.70;85.70
20911;DHT22;10615;42.702;23.314;2024-01-11T01:35:24;-2.70;85.60
20911;DHT22;10615;42.702;23.314;2024-01-11T01:36:25;-2.70;85.60
20911;DHT22;10615;42.702;23.314;2024-01-11T01:37:25;-2.70;85.70
20911;DHT22;10615;42.702;23.314;2024-01-11T01:38:26;-2.70;85.70
20911;DHT22;10615;42.702;23.314;2024-01-11T01:39:27;-2.70;85.70
20911;DHT22;10615;42.702;23.314;2024-01-11T01:40:30;-2.70;85.60
20911;DHT22;10615;42.702;23.314;2024-01-11T01:41:31;-2.60;85.60
20911;DHT22;10615;42.702;23.314;2024-01-11T01:42:32;-2.70;85.50
20911;DHT22;10615;42.702;23.314;2024-01-11T01:43:33;-2.70;85.60
20911;DHT22;10615;42.702;23.314;2024-01-11T01:44:33;-2.70;85.50
20911;DHT22;10615;42.702;23.314;2024-01-11T01:45:34;-2.70;86.30
20911;DHT22;10615;42.702;23.314;2024-01-11T01:46:35;-2.70;85.60
20911;DHT22;10615;42.702;23.314;2024-01-11T01:47:38;-2.70;85.60
20911;DHT22;10615;42.702;23.314;2024-01-11T01:48:40;-2.80;85.70
20911;DHT22;10615;42.702;23.314;2024-01-11T01:49:43;-2.80;85.70
20911;DHT22;10615;42.702;23.314;2024-01-11T01:50:44;-2.80;85.70
20911;DHT22;10615;42.702;23.314;2024-01-11T01:51:51;-2.70;85.80
20911;DHT22;10615;42.702;23.314;2024-01-11T01:52:54;-2.70;85.60
20911;DHT22;10615;42.702;23.314;2024-01-11T01:53:57;-2.80;85.30
20911;DHT22;10615;42.702;23.314;2024-01-11T01:54:58;-2.80;85.20
20911;DHT22;10615;42.702;23.314;2024-01-11T01:55:59;-2.80;85.30
20911;DHT22;10615;42.702;23.314;2024-01-11T01:57:00;-2.90;85.20
20911;DHT22;10615;42.702;23.314;2024-01-11T01:58:03;-2.90;85.00
20911;DHT22;10615;42.702;23.314;2024-01-11T01:59:04;-2.90;85.10
20911;DHT22;10615;42.702;23.314;2024-01-11T02:00:05;-2.90;85.10
20911;DHT22;10615;42.702;23.314;2024-01-11T02:01:06;-3.00;85.10
20911;DHT22;10615;42.702;23.314;2024-01-11T02:02:08;-3.10;85.20
20911;DHT22;10615;42.702;23.314;2024-01-11T02:03:10;-3.10;85.30
20911;DHT22;10615;42.702;23.314;2024-01-11T02:04:11;-3.20;85.30
20911;DHT22;10615;42.702;23.314;2024-01-11T02:05:13;-3.20;85.50
20911;DHT22;10615;42.702;23.314;2024-01-11T02:06:15;-3.20;85.60
20911;DHT22;10615;42.702;23.314;2024-01-11T02:07:15;-3.30;85.60
20911;DHT22;10615;42.702;23.314;2024-01-11T02:08:16;-3.30;85.80
20911;DHT22;10615;42.702;23.314;2024-01-11T02:09:18;-3.30;85.90
20911;DHT22;10615;42.702;23.314;2024-01-11T02:10:19;-3.40;86.00
20911;DHT22;10615;42.702;23.314;2024-01-11T02:11:20;-3.40;86.20
20911;DHT22;10615;42.702;23.314;2024-01-11T02:12:22;-3.30;86.50
20911;DHT22;10615;42.702;23.314;2024-01-11T02:13:24;-3.30;86.50
20911;DHT22;10615;42.702;23.314;2024-01-11T02:14:25;-3.30;86.50
20911;DHT22;10615;42.702;23.314;2024-01-11T02:15:26;-3.30;86.50
20911;DHT22;10615;42.702;23.314;2024-01-11T02:16:27;-3.30;86.50
20911;DHT22;10615;42.702;23.314;2024-01-11T02:17:28;-3.40;86.30
20911;DHT22;10615;42.702;23.314;2024-01-11T02:18:29;-3.40;86.30
20911;DHT22;10615;42.702;23.314;2024-01-11T02:19:30;-3.40;86.40
20911;DHT22;10615;42.702;23.314;2024-01-11T02:20:31;-3.40;86.50
20911;DHT22;10615;42.702;23.314;2024-01-11T02:21:33;-3.40;86.60
20911;DHT22;10615;42.702;23.314;2024-01-11T02:22:40;-3.40;86.50
20911;DHT22;10615;42.702;23.314;2024-01-11T02:23:43;-3.40;86.60
20911;DHT22;10615;42.702;23.314;2024-01-11T02:24:47;-3.40;86.50
20911;DHT22;10615;42.702;23.314;2024-01-11T02:25:48;-3.50;86.30
20911;DHT22;10615;42.702;23.314;2024-01-11T02:26:59;-3.50;86.30
20911;DHT22;10615;42.702;23.314;2024-01-11T02:28:00;-3.60;86.30
20911;DHT22;10615;42.702;23.314;2024-01-11T02:29:02;-3.50;86.50
20911;DHT22;10615;42.702;23.314;2024-01-11T02:30:03;-3.60;86.40
20911;DHT22;10615;42.702;23.314;2024-01-11T02:31:03;-3.60;86.50
20911;DHT22;10615;42.702;23.314;2024-01-11T02:32:04;-3.60;86.50
20911;DHT22;10615;42.702;23.314;2024-01-11T02:33:07;-3.70;86.50
20911;DHT22;10615;42.702;23.314;2024-01-11T02:34:07;-3.70;86.50
20911;DHT22;10615;42.702;23.314;2024-01-11T02:35:08;-3.70;86.60
20911;DHT22;10615;42.702;23.314;2024-01-11T02:36:09;-3.70;86.60
20911;DHT22;10615;42.702;23.314;2024-01-11T02:37:11;-3.80;86.70
20911;DHT22;10615;42.702;23.314;2024-01-11T02:38:11;-3.80;86.80
20911;DHT22;10615;42.702;23.314;2024-01-11T02:39:14;-3.80;86.80
20911;DHT22;10615;42.702;23.314;2024-01-11T02:40:19;-3.80;86.80
20911;DHT22;10615;42.702;23.314;2024-01-11T02:41:20;-3.80;87.00
20911;DHT22;10615;42.702;23.314;2024-01-11T02:42:22;-3.80;87.10
20911;DHT22;10615;42.702;23.314;2024-01-11T02:43:22;-3.80;87.10
20911;DHT22;10615;42.702;23.314;2024-01-11T02:44:23;-3.80;87.30
20911;DHT22;10615;42.702;23.314;2024-01-11T02:45:24;-3.80;87.20
20911;DHT22;10615;42.702;23.314;2024-01-11T02:46:25;-3.80;87.30
20911;DHT22;10615;42.702;23.314;2024-01-11T02:47:26;-3.80;87.30
20911;DHT22;10615;42.702;23.314;2024-01-11T02:48:29;-3.80;87.30
20911;DHT22;10615;42.702;23.314;2024-01-11T02:49:30;-3.80;87.40
20911;DHT22;10615;42.702;23.314;2024-01-11T02:50:31;-3.80;87.40
20911;DHT22;10615;42.702;23.314;2024-01-11T02:51:33;-3.70;87.60
20911;DHT22;10615;42.702;23.314;2024-01-11T02:52:34;-3.70;87.50
20911;DHT22;10615;42.702;23.314;2024-01-11T02:53:35;-3.00;87.90
20911;DHT22;10615;42.702;23.314;2024-01-11T02:54:35;-3.70;87.50
20911;DHT22;10615;42.702;23.314;2024-01-11T02:55:36;-3.70;87.40
20911;DHT22;10615;42.702;23.314;2024-01-11T02:56:37;-3.70;87.30
20911;DHT22;10615;42.702;23.314;2024-01-11T02:57:38;-3.70;87.40
20911;DHT22;10615;42.702;23.314;2024-01-11T02:58:38;-3.60;87.50
20911;DHT22;10615;42.702;23.314;2024-01-11T02:59:40;-3.60;87.50
20911;DHT22;10615;42.702;23.314;2024-01-11T03:00:41;-3.60;87.40
20911;DHT22;10615;42.702;23.314;2024-01-11T03:01:41;-3.60;87.40
20911;DHT22;10615;42.702;23.314;2024-01-11T03:02:42;-3.70;87.30
20911;DHT22;10615;42.702;23.314;2024-01-11T03:03:43;-3.70;87.30
20911;DHT22;10615;42.702;23.314;2024-01-11T03:04:44;-3.70;87.30
20911;DHT22;10615;42.702;23.314;2024-01-11T03:05:44;-3.70;87.30
20911;DHT22;10615;42.702;23.314;2024-01-11T03:06:45;-3.70;87.30
20911;DHT22;10615;42.702;23.314;2024-01-11T03:07:46;-3.70;87.40
20911;DHT22;10615;42.702;23.314;2024-01-11T03:08:50;-3.70;87.40
20911;DHT22;10615;42.702;23.314;2024-01-11T03:09:51;-3.70;87.40
20911;DHT22;10615;42.702;23.314;2024-01-11T03:10:52;-3.70;87.50
20911;DHT22;10615;42.702;23.314;2024-01-11T03:11:53;-3.70;87.50
20911;DHT22;10615;42.702;23.314;2024-01-11T03:12:53;-3.70;87.50
20911;DHT22;10615;42.702;23.314;2024-01-11T03:13:54;-3.80;87.40
20911;DHT22;10615;42.702;23.314;2024-01-11T03:14:56;-3.80;87.50
20911;DHT22;10615;42.702;23.314;2024-01-11T03:15:56;-3.70;87.60
20911;DHT22;10615;42.702;23.314;2024-01-11T03:16:57;-3.80;87.60
20911;DHT22;10615;42.702;23.314;2024-01-11T03:17:58;-3.80;87.60
20911;DHT22;10615;42.702;23.314;2024-01-11T03:18:59;-3.80;87.70
20911;DHT22;10615;42.702;23.314;2024-01-11T03:20:01;-3.80;87.80
20911;DHT22;10615;42.702;23.314;2024-01-11T03:21:04;-3.80;87.80
20911;DHT22;10615;42.702;23.314;2024-01-11T03:22:04;-3.70;87.90
20911;DHT22;10615;42.702;23.314;2024-01-11T03:23:07;-3.70;87.90
20911;DHT22;10615;42.702;23.314;2024-01-11T03:24:08;-3.70;87.90
20911;DHT22;10615;42.702;23.314;2024-01-11T03:25:10;-3.70;87.90
20911;DHT22;10615;42.702;23.314;2024-01-11T03:26:15;-3.70;87.90
20911;DHT22;10615;42.702;23.314;2024-01-11T03:27:16;-3.60;87.80
20911;DHT22;10615;42.702;23.314;2024-01-11T03:28:17;-3.60;87.80
20911;DHT22;10615;42.702;23.314;2024-01-11T03:29:18;-3.60;87.80
20911;DHT22;10615;42.702;23.314;2024-01-11T03:30:18;-3.50;87.80
20911;DHT22;10615;42.702;23.314;2024-01-11T03:31:19;-3.50;87.80
20911;DHT22;10615;42.702;23.314;2024-01-11T03:32:20;-3.50;87.70
20911;DHT22;10615;42.702;23.314;2024-01-11T03:33:20;-3.50;87.70
20911;DHT22;10615;42.702;23.314;2024-01-11T03:34:21;-3.50;87.70
20911;DHT22;10615;42.702;23.314;2024-01-11T03:35:22;-3.50;87.70
20911;DHT22;10615;42.702;23.314;2024-01-11T03:36:24;-3.50;87.80
20911;DHT22;10615;42.702;23.314;2024-01-11T03:37:25;-3.50;87.70
20911;DHT22;10615;42.702;23.314;2024-01-11T03:38:26;-3.50;87.70
20911;DHT22;10615;42.702;23.314;2024-01-11T03:39:26;-3.50;87.70
20911;DHT22;10615;42.702;23.314;2024-01-11T03:40:27;-3.50;87.80
20911;DHT22;10615;42.702;23.314;2024-01-11T03:41:28;-3.40;87.80
20911;DHT22;10615;42.702;23.314;2024-01-11T03:42:29;-3.40;87.80
20911;DHT22;10615;42.702;23.314;2024-01-11T03:43:29;-3.40;87.80
20911;DHT22;10615;42.702;23.314;2024-01-11T03:44:30;-3.30;87.80
20911;DHT22;10615;42.702;23.314;2024-01-11T03:45:31;-3.30;87.60
20911;DHT22;10615;42.702;23.314;2024-01-11T03:46:32;-3.30;87.60
20911;DHT22;10615;42.702;23.314;2024-01-11T03:47:33;-3.30;87.60
20911;DHT22;10615;42.702;23.314;2024-01-11T03:48:34;-3.30;87.40
20911;DHT22;10615;42.702;23.314;2024-01-11T03:49:37;-3.30;87.40
20911;DHT22;10615;42.702;23.314;2024-01-11T03:50:38;-3.30;87.30
20911;DHT22;10615;42.702;23.314;2024-01-11T03:51:39;-3.30;87.30
20911;DHT22;10615;42.702;23.314;2024-01-11T03:52:39;-3.30;87.30
20911;DHT22;10615;42.702;23.314;2024-01-11T03:53:40;-3.30;87.40
20911;DHT22;10615;42.702;23.314;2024-01-11T03:54:41;-3.30;87.30
20911;DHT22;10615;42.702;23.314;2024-01-11T03:55:42;-3.30;87.40
20911;DHT22;10615;42.702;23.314;2024-01-11T03:56:42;-3.30;87.30
20911;DHT22;10615;42.702;23.314;2024-01-11T03:57:43;-3.30;87.30
20911;DHT22;10615;42.702;23.314;2024-01-11T03:58:44;-3.40;87.20
20911;DHT22;10615;42.702;23.314;2024-01-11T03:59:45;-3.40;87.20
20911;DHT22;10615;42.702;23.314;2024-01-11T04:00:46;-3.40;87.30
20911;DHT22;10615;42.702;23.314;2024-01-11T04:01:47;-3.40;87.40
20911;DHT22;10615;42.702;23.314;2024-01-11T04:02:48;-3.40;87.20
20911;DHT22;10615;42.702;23.314;2024-01-11T04:03:51;-3.40;87.20
20911;DHT22;10615;42.702;23.314;2024-01-11T04:04:52;-3.40;87.20
20911;DHT22;10615;42.702;23.314;2024-01-11T04:05:54;-3.40;87.20
20911;DHT22;10615;42.702;23.314;2024-01-11T04:06:55;-3.40;87.20
20911;DHT22;10615;42.702;23.314;2024-01-11T04:07:56;-3.40;87.20
20911;DHT22;10615;42.702;23.314;2024-01-11T04:08:59;-3.40;87.10
20911;DHT22;10615;42.702;23.314;2024-01-11T04:10:00;-3.40;87.20
20911;DHT22;10615;42.702;23.314;2024-01-11T04:11:03;-3.40;87.20
20911;DHT22;10615;42.702;23.314;2024-01-11T04:12:07;-3.40;87.20
20911;DHT22;10615;42.702;23.314;2024-01-11T04:13:08;-3.40;87.20
20911;DHT22;10615;42.702;23.314;2024-01-11T04:14:09;-3.40;87.20
20911;DHT22;10615;42.702;23.314;2024-01-11T04:15:13;-3.40;87.30
20911;DHT22;10615;42.702;23.314;2024-01-11T04:16:14;-3.40;87.40
20911;DHT22;10615;42.702;23.314;2024-01-11T04:17:15;-3.40;87.50
20911;DHT22;10615;42.702;23.314;2024-01-11T04:18:15;-3.40;87.50
20911;DHT22;10615;42.702;23.314;2024-01-11T04:19:16;-3.40;87.50
20911;DHT22;10615;42.702;23.314;2024-01-11T04:20:17;-3.30;87.60
20911;DHT22;10615;42.702;23.314;2024-01-11T04:21:25;-3.40;87.50
20911;DHT22;10615;42.702;23.314;2024-01-11T04:22:28;-3.30;87.60
20911;DHT22;10615;42.702;23.314;2024-01-11T04:23:30;-3.40;87.50
20911;DHT22;10615;42.702;23.314;2024-01-11T04:24:31;-3.30;87.50
20911;DHT22;10615;42.702;23.314;2024-01-11T04:25:32;-3.30;87.50
20911;DHT22;10615;42.702;23.314;2024-01-11T04:26:33;-3.30;87.50
20911;DHT22;10615;42.702;23.314;2024-01-11T04:27:34;-3.30;87.50
20911;DHT22;10615;42.702;23.314;2024-01-11T04:28:37;-3.30;87.50
20911;DHT22;10615;42.702;23.314;2024-01-11T04:29:37;-3.30;87.40
20911;DHT22;10615;42.702;23.314;2024-01-11T04:30:38;-3.30;87.40
20911;DHT22;10615;42.702;23.314;2024-01-11T04:31:39;-3.30;87.50
20911;DHT22;10615;42.702;23.314;2024-01-11T04:32:40;-3.30;87.50
20911;DHT22;10615;42.702;23.314;2024-01-11T04:33:43;-3.30;87.50
20911;DHT22;10615;42.702;23.314;2024-01-11T04:34:44;-3.30;87.50
20911;DHT22;10615;42.702;23.314;2024-01-11T04:35:45;-3.30;87.60
20911;DHT22;10615;42.702;23.314;2024-01-11T04:36:45;-3.30;87.60
20911;DHT22;10615;42.702;23.314;2024-01-11T04:37:46;-3.30;87.60
20911;DHT22;10615;42.702;23.314;2024-01-11T04:38:47;-3.30;87.50
20911;DHT22;10615;42.702;23.314;2024-01-11T04:39:48;-3.30;87.50
20911;DHT22;10615;42.702;23.314;2024-01-11T04:40:48;-3.30;87.40
20911;DHT22;10615;42.702;23.314;2024-01-11T04:41:49;-3.30;87.60
20911;DHT22;10615;42.702;23.314;2024-01-11T04:42:50;-3.30;87.60
20911;DHT22;10615;42.702;23.314;2024-01-11T04:43:51;-3.30;87.60
20911;DHT22;10615;42.702;23.314;2024-01-11T04:44:52;-3.30;87.60
20911;DHT22;10615;42.702;23.314;2024-01-11T04:45:53;-3.30;87.60
20911;DHT22;10615;42.702;23.314;2024-01-11T04:46:53;-3.30;87.60
20911;DHT22;10615;42.702;23.314;2024-01-11T04:47:54;-3.30;87.60
20911;DHT22;10615;42.702;23.314;2024-01-11T04:48:55;-3.30;87.60
20911;DHT22;10615;42.702;23.314;2024-01-11T04:49:56;-3.20;87.70
20911;DHT22;10615;42.702;23.314;2024-01-11T04:50:56;-3.20;87.60
20911;DHT22;10615;42.702;23.314;2024-01-11T04:51:57;-3.30;87.50
20911;DHT22;10615;42.702;23.314;2024-01-11T04:53:00;-3.30;87.50
20911;DHT22;10615;42.702;23.314;2024-01-11T04:54:00;-3.30;87.50
20911;DHT22;10615;42.702;23.314;2024-01-11T04:55:01;-3.30;87.50
20911;DHT22;10615;42.702;23.314;2024-01-11T04:56:02;-3.30;87.50
20911;DHT22;10615;42.702;23.314;2024-01-11T04:57:03;-3.30;87.60
20911;DHT22;10615;42.702;23.314;2024-01-11T04:58:04;-3.30;87.50
20911;DHT22;10615;42.702;23.314;2024-01-11T04:59:05;-3.30;87.60
20911;DHT22;10615;42.702;23.314;2024-01-11T05:00:06;-3.30;87.60
20911;DHT22;10615;42.702;23.314;2024-01-11T05:01:14;-3.30;87.60
20911;DHT22;10615;42.702;23.314;2024-01-11T05:02:15;-3.30;87.60
20911;DHT22;10615;42.702;23.314;2024-01-11T05:03:16;-3.30;87.60
20911;DHT22;10615;42.702;23.314;2024-01-11T05:04:16;-3.30;87.50
20911;DHT22;10615;42.702;23.314;2024-01-11T05:05:17;-3.30;87.40
20911;DHT22;10615;42.702;23.314;2024-01-11T05:06:19;-3.30;87.50
20911;DHT22;10615;42.702;23.314;2024-01-11T05:07:20;-3.30;87.50
20911;DHT22;10615;42.702;23.314;2024-01-11T05:08:21;-3.30;87.50
20911;DHT22;10615;42.702;23.314;2024-01-11T05:09:22;-3.30;87.40
20911;DHT22;10615;42.702;23.314;2024-01-11T05:10:22;-3.30;87.40
20911;DHT22;10615;42.702;23.314;2024-01-11T05:11:24;-3.30;87.40
20911;DHT22;10615;42.702;23.314;2024-01-11T05:12:25;-3.30;87.50
20911;DHT22;10615;42.702;23.314;2024-01-11T05:13:25;-3.30;87.40
20911;DHT22;10615;42.702;23.314;2024-01-11T05:14:26;-3.40;87.30
20911;DHT22;10615;42.702;23.314;2024-01-11T05:15:27;-3.30;87.40
20911;DHT22;10615;42.702;23.314;2024-01-11T05:16:28;-3.40;87.50
20911;DHT22;10615;42.702;23.314;2024-01-11T05:17:29;-3.30;87.40
20911;DHT22;10615;42.702;23.314;2024-01-11T05:18:30;-3.30;87.40
20911;DHT22;10615;42.702;23.314;2024-01-11T05:19:30;-3.40;87.40
20911;DHT22;10615;42.702;23.314;2024-01-11T05:20:31;-3.30;87.60
20911;DHT22;10615;42.702;23.314;2024-01-11T05:21:32;-3.10;87.90
20911;DHT22;10615;42.702;23.314;2024-01-11T05:22:33;-3.00;88.20
20911;DHT22;10615;42.702;23.314;2024-01-11T05:23:33;-2.90;88.40
20911;DHT22;10615;42.702;23.314;2024-01-11T05:24:34;-2.80;88.40
20911;DHT22;10615;42.702;23.314;2024-01-11T05:25:35;-2.70;88.30
20911;DHT22;10615;42.702;23.314;2024-01-11T05:26:36;-2.70;88.00
20911;DHT22;10615;42.702;23.314;2024-01-11T05:27:36;-2.60;87.80
20911;DHT22;10615;42.702;23.314;2024-01-11T05:28:37;-2.60;87.40
20911;DHT22;10615;42.702;23.314;2024-01-11T05:29:39;-2.50;87.10
20911;DHT22;10615;42.702;23.314;2024-01-11T05:30:39;-2.50;86.90
20911;DHT22;10615;42.702;23.314;2024-01-11T05:31:40;-2.50;86.60
20911;DHT22;10615;42.702;23.314;2024-01-11T05:32:41;-2.50;86.30
20911;DHT22;10615;42.702;23.314;2024-01-11T05:33:42;-2.40;86.30
20911;DHT22;10615;42.702;23.314;2024-01-11T05:34:43;-2.40;86.20
20911;DHT22;10615;42.702;23.314;2024-01-11T05:35:44;-2.40;86.00
20911;DHT22;10615;42.702;23.314;2024-01-11T05:36:45;-2.50;85.80
20911;DHT22;10615;42.702;23.314;2024-01-11T05:37:45;-2.40;85.80
20911;DHT22;10615;42.702;23.314;2024-01-11T05:38:46;-2.40;85.70
20911;DHT22;10615;42.702;23.314;2024-01-11T05:39:47;-2.40;85.70
20911;DHT22;10615;42.702;23.314;2024-01-11T05:40:48;-2.40;85.70
20911;DHT22;10615;42.702;23.314;2024-01-11T05:41:48;-2.40;85.60
20911;DHT22;10615;42.702;23.314;2024-01-11T05:42:49;-2.40;85.50
20911;DHT22;10615;42.702;23.314;2024-01-11T05:43:50;-2.40;85.50
20911;DHT22;10615;42.702;23.314;2024-01-11T05:44:52;-2.40;85.50
20911;DHT22;10615;42.702;23.314;2024-01-11T05:45:53;-2.40;85.40
20911;DHT22;10615;42.702;23.314;2024-01-11T05:46:53;-2.40;85.30
20911;DHT22;10615;42.702;23.314;2024-01-11T05:47:54;-2.40;85.30
20911;DHT22;10615;42.702;23.314;2024-01-11T05:48:55;-2.40;85.20
20911;DHT22;10615;42.702;23.314;2024-01-11T05:49:56;-2.40;85.10
20911;DHT22;10615;42.702;23.314;2024-01-11T05:50:59;-2.40;84.90
20911;DHT22;10615;42.702;23.314;2024-01-11T05:52:00;-2.40;84.80
20911;DHT22;10615;42.702;23.314;2024-01-11T05:53:01;-2.40;84.60
20911;DHT22;10615;42.702;23.314;2024-01-11T05:54:01;-2.40;84.50
20911;DHT22;10615;42.702;23.314;2024-01-11T05:55:02;-2.40;84.60
20911;DHT22;10615;42.702;23.314;2024-01-11T05:56:09;-2.40;84.60
20911;DHT22;10615;42.702;23.314;2024-01-11T05:57:10;-2.40;84.60
20911;DHT22;10615;42.702;23.314;2024-01-11T05:58:11;-2.40;84.70
20911;DHT22;10615;42.702;23.314;2024-01-11T05:59:12;-2.40;84.70
20911;DHT22;10615;42.702;23.314;2024-01-11T06:00:13;-2.40;84.70
20911;DHT22;10615;42.702;23.314;2024-01-11T06:01:14;-2.40;84.60
20911;DHT22;10615;42.702;23.314;2024-01-11T06:02:15;-2.40;84.60
20911;DHT22;10615;42.702;23.314;2024-01-11T06:03:16;-2.40;84.50
20911;DHT22;10615;42.702;23.314;2024-01-11T06:04:17;-2.40;84.40
20911;DHT22;10615;42.702;23.314;2024-01-11T06:05:18;-2.40;84.40
20911;DHT22;10615;42.702;23.314;2024-01-11T06:06:18;-2.50;84.20
20911;DHT22;10615;42.702;23.314;2024-01-11T06:07:19;-2.50;84.30
20911;DHT22;10615;42.702;23.314;2024-01-11T06:08:20;-2.60;84.30
20911;DHT22;10615;42.702;23.314;2024-01-11T06:09:21;-2.60;84.40
20911;DHT22;10615;42.702;23.314;2024-01-11T06:10:22;-2.70;84.50
20911;DHT22;10615;42.702;23.314;2024-01-11T06:11:22;-2.80;84.50
20911;DHT22;10615;42.702;23.314;2024-01-11T06:12:23;-2.80;84.70
20911;DHT22;10615;42.702;23.314;2024-01-11T06:13:24;-2.90;84.90
20911;DHT22;10615;42.702;23.314;2024-01-11T06:14:25;-2.80;85.10
20911;DHT22;10615;42.702;23.314;2024-01-11T06:15:25;-2.90;85.20
20911;DHT22;10615;42.702;23.314;2024-01-11T06:16:26;-2.90;85.30
20911;DHT22;10615;42.702;23.314;2024-01-11T06:17:27;-2.90;85.50
20911;DHT22;10615;42.702;23.314;2024-01-11T06:18:28;-2.90;85.50
20911;DHT22;10615;42.702;23.314;2024-01-11T06:19:29;-2.90;85.60
20911;DHT22;10615;42.702;23.314;2024-01-11T06:20:30;-2.90;85.80
20911;DHT22;10615;42.702;23.314;2024-01-11T06:21:30;-3.00;85.70